FMEP/ZSE METAR and TAF weather

Enter ICAO airport designator
Station Type Date Time Source
FMEP METAR 2022/06/28 15:30 UTC NOAA

FMEP 281530Z AUTO 07005KT 9999 FEW040 SCT066 18/15 Q1024 NOSIG


Station Type Date Time Source
FMEP Decoded METAR 2022/06/28 15:30 UTC NOAA

Saint-Pierre, Reunion (FMEP) 21-20S 055-29E 53M
Jun 28, 2022 - 11:30 AM EDT / 2022.06.28 1530 UTC
Wind: from the ENE (070 degrees) at 6 MPH (5 KT):0
Visibility: greater than 7 mile(s):0
Sky conditions: partly cloudy
Temperature: 64 F (18 C)
Dew Point: 59 F (15 C)
Relative Humidity: 82%
Pressure (altimeter): 30.24 in. Hg (1024 hPa)
ob: FMEP 281530Z AUTO 07005KT 9999 FEW040 SCT066 18/15 Q1024 NOSIG
cycle: 15

Station Type Date Time Source
FMEP TAF 2020/08/08 06:00 UTC NOAA

TAF FMEP 080500Z 0806/0815 27010KT 9999 FEW030

Example: see airport list